sensor_id;sensor_type;location;lat;lon;timestamp;P1;durP1;ratioP1;P2;durP2;ratioP2
71610;SDS011;59459;51.172;6.682;2023-04-15T00:00:52;22.87;;;10.57;;
71610;SDS011;59459;51.172;6.682;2023-04-15T00:03:18;18.00;;;10.80;;
71610;SDS011;59459;51.172;6.682;2023-04-15T00:05:43;25.17;;;11.33;;
71610;SDS011;59459;51.172;6.682;2023-04-15T00:08:08;22.13;;;9.60;;
71610;SDS011;59459;51.172;6.682;2023-04-15T00:10:34;21.50;;;10.67;;
71610;SDS011;59459;51.172;6.682;2023-04-15T00:12:59;25.63;;;12.67;;
71610;SDS011;59459;51.172;6.682;2023-04-15T00:15:25;21.60;;;11.23;;
71610;SDS011;59459;51.172;6.682;2023-04-15T00:17:51;20.03;;;10.80;;
71610;SDS011;59459;51.172;6.682;2023-04-15T00:20:16;18.40;;;9.80;;
71610;SDS011;59459;51.172;6.682;2023-04-15T00:22:41;19.57;;;10.70;;
71610;SDS011;59459;51.172;6.682;2023-04-15T00:25:07;20.77;;;10.73;;
71610;SDS011;59459;51.172;6.682;2023-04-15T00:27:33;22.90;;;11.32;;
71610;SDS011;59459;51.172;6.682;2023-04-15T00:29:58;20.97;;;11.13;;
71610;SDS011;59459;51.172;6.682;2023-04-15T00:32:24;19.20;;;9.70;;
71610;SDS011;59459;51.172;6.682;2023-04-15T00:34:49;19.80;;;9.60;;
71610;SDS011;59459;51.172;6.682;2023-04-15T00:37:15;17.88;;;9.85;;
71610;SDS011;59459;51.172;6.682;2023-04-15T00:39:40;21.43;;;10.27;;
71610;SDS011;59459;51.172;6.682;2023-04-15T00:42:05;17.00;;;9.10;;
71610;SDS011;59459;51.172;6.682;2023-04-15T00:44:32;19.57;;;9.60;;
71610;SDS011;59459;51.172;6.682;2023-04-15T00:46:57;18.48;;;9.00;;
71610;SDS011;59459;51.172;6.682;2023-04-15T00:49:23;18.83;;;9.73;;
71610;SDS011;59459;51.172;6.682;2023-04-15T00:51:48;18.10;;;8.93;;
71610;SDS011;59459;51.172;6.682;2023-04-15T00:54:14;15.80;;;8.97;;
71610;SDS011;59459;51.172;6.682;2023-04-15T00:56:40;16.58;;;9.70;;
71610;SDS011;59459;51.172;6.682;2023-04-15T00:59:06;17.42;;;9.35;;
71610;SDS011;59459;51.172;6.682;2023-04-15T01:01:33;17.20;;;8.03;;
71610;SDS011;59459;51.172;6.682;2023-04-15T01:03:58;20.27;;;9.70;;
71610;SDS011;59459;51.172;6.682;2023-04-15T01:06:23;20.13;;;10.77;;
71610;SDS011;59459;51.172;6.682;2023-04-15T01:08:48;20.33;;;10.10;;
71610;SDS011;59459;51.172;6.682;2023-04-15T01:11:14;19.80;;;10.10;;
71610;SDS011;59459;51.172;6.682;2023-04-15T01:13:39;24.30;;;10.68;;
71610;SDS011;59459;51.172;6.682;2023-04-15T01:16:05;23.52;;;11.43;;
71610;SDS011;59459;51.172;6.682;2023-04-15T01:18:31;21.13;;;10.20;;
71610;SDS011;59459;51.172;6.682;2023-04-15T01:20:57;29.58;;;13.10;;
71610;SDS011;59459;51.172;6.682;2023-04-15T01:23:24;28.67;;;14.13;;
71610;SDS011;59459;51.172;6.682;2023-04-15T01:25:49;32.50;;;15.27;;
71610;SDS011;59459;51.172;6.682;2023-04-15T01:28:15;28.50;;;14.63;;
71610;SDS011;59459;51.172;6.682;2023-04-15T01:30:40;29.17;;;14.68;;
71610;SDS011;59459;51.172;6.682;2023-04-15T01:33:06;34.47;;;14.93;;
71610;SDS011;59459;51.172;6.682;2023-04-15T01:35:31;30.20;;;14.70;;
71610;SDS011;59459;51.172;6.682;2023-04-15T01:37:59;27.20;;;14.00;;
71610;SDS011;59459;51.172;6.682;2023-04-15T01:40:26;30.35;;;13.30;;
71610;SDS011;59459;51.172;6.682;2023-04-15T01:42:51;24.83;;;12.43;;
71610;SDS011;59459;51.172;6.682;2023-04-15T01:45:17;26.03;;;12.43;;
71610;SDS011;59459;51.172;6.682;2023-04-15T01:47:42;24.57;;;12.07;;
71610;SDS011;59459;51.172;6.682;2023-04-15T01:50:07;24.27;;;12.03;;
71610;SDS011;59459;51.172;6.682;2023-04-15T01:52:33;23.88;;;11.32;;
71610;SDS011;59459;51.172;6.682;2023-04-15T01:54:58;21.70;;;11.13;;
71610;SDS011;59459;51.172;6.682;2023-04-15T01:57:24;24.77;;;11.13;;
71610;SDS011;59459;51.172;6.682;2023-04-15T01:59:49;18.93;;;10.33;;
71610;SDS011;59459;51.172;6.682;2023-04-15T02:02:14;18.40;;;9.80;;
71610;SDS011;59459;51.172;6.682;2023-04-15T02:04:40;21.00;;;9.65;;
71610;SDS011;59459;51.172;6.682;2023-04-15T02:07:05;18.97;;;9.40;;
71610;SDS011;59459;51.172;6.682;2023-04-15T02:09:31;18.87;;;9.50;;
71610;SDS011;59459;51.172;6.682;2023-04-15T02:11:56;18.80;;;9.87;;
71610;SDS011;59459;51.172;6.682;2023-04-15T02:14:21;21.17;;;9.47;;
71610;SDS011;59459;51.172;6.682;2023-04-15T02:16:46;19.33;;;9.80;;
71610;SDS011;59459;51.172;6.682;2023-04-15T02:19:12;17.80;;;9.00;;
71610;SDS011;59459;51.172;6.682;2023-04-15T02:21:38;17.70;;;8.27;;
71610;SDS011;59459;51.172;6.682;2023-04-15T02:24:03;16.13;;;8.35;;
71610;SDS011;59459;51.172;6.682;2023-04-15T02:26:29;17.50;;;8.70;;
71610;SDS011;59459;51.172;6.682;2023-04-15T02:28:56;18.15;;;8.88;;
71610;SDS011;59459;51.172;6.682;2023-04-15T02:31:21;15.30;;;8.10;;
71610;SDS011;59459;51.172;6.682;2023-04-15T02:33:47;15.47;;;7.20;;
71610;SDS011;59459;51.172;6.682;2023-04-15T02:36:12;15.30;;;7.93;;
71610;SDS011;59459;51.172;6.682;2023-04-15T02:38:37;16.37;;;7.57;;
71610;SDS011;59459;51.172;6.682;2023-04-15T02:41:04;15.98;;;7.78;;
71610;SDS011;59459;51.172;6.682;2023-04-15T02:43:29;14.13;;;7.30;;
71610;SDS011;59459;51.172;6.682;2023-04-15T02:45:55;17.52;;;7.93;;
71610;SDS011;59459;51.172;6.682;2023-04-15T02:48:20;16.20;;;7.43;;
71610;SDS011;59459;51.172;6.682;2023-04-15T02:50:46;14.80;;;8.00;;
71610;SDS011;59459;51.172;6.682;2023-04-15T02:53:11;18.40;;;8.33;;
71610;SDS011;59459;51.172;6.682;2023-04-15T02:55:38;14.80;;;7.72;;
71610;SDS011;59459;51.172;6.682;2023-04-15T02:58:03;15.67;;;7.70;;
71610;SDS011;59459;51.172;6.682;2023-04-15T03:00:29;13.10;;;7.53;;
71610;SDS011;59459;51.172;6.682;2023-04-15T03:02:58;14.57;;;7.60;;
71610;SDS011;59459;51.172;6.682;2023-04-15T03:05:23;16.50;;;8.07;;
71610;SDS011;59459;51.172;6.682;2023-04-15T03:07:49;19.35;;;8.07;;
71610;SDS011;59459;51.172;6.682;2023-04-15T03:10:15;18.20;;;8.25;;
71610;SDS011;59459;51.172;6.682;2023-04-15T03:12:40;17.53;;;7.80;;
71610;SDS011;59459;51.172;6.682;2023-04-15T03:15:05;16.80;;;8.07;;
71610;SDS011;59459;51.172;6.682;2023-04-15T03:17:31;16.57;;;7.53;;
71610;SDS011;59459;51.172;6.682;2023-04-15T03:19:56;16.77;;;8.07;;
71610;SDS011;59459;51.172;6.682;2023-04-15T03:22:21;19.20;;;8.07;;
71610;SDS011;59459;51.172;6.682;2023-04-15T03:24:46;14.10;;;7.87;;
71610;SDS011;59459;51.172;6.682;2023-04-15T03:27:11;17.00;;;8.43;;
71610;SDS011;59459;51.172;6.682;2023-04-15T03:29:37;18.73;;;8.27;;
71610;SDS011;59459;51.172;6.682;2023-04-15T03:32:02;17.90;;;9.00;;
71610;SDS011;59459;51.172;6.682;2023-04-15T03:34:27;17.47;;;8.33;;
71610;SDS011;59459;51.172;6.682;2023-04-15T03:36:52;17.53;;;7.97;;
71610;SDS011;59459;51.172;6.682;2023-04-15T03:39:18;17.27;;;7.30;;
71610;SDS011;59459;51.172;6.682;2023-04-15T03:41:43;19.90;;;8.23;;
71610;SDS011;59459;51.172;6.682;2023-04-15T03:44:08;15.73;;;7.83;;
71610;SDS011;59459;51.172;6.682;2023-04-15T03:46:33;17.90;;;8.83;;
71610;SDS011;59459;51.172;6.682;2023-04-15T03:48:58;15.90;;;8.23;;
71610;SDS011;59459;51.172;6.682;2023-04-15T03:51:24;18.03;;;8.87;;
71610;SDS011;59459;51.172;6.682;2023-04-15T03:53:50;18.02;;;8.70;;
71610;SDS011;59459;51.172;6.682;2023-04-15T03:56:15;17.40;;;8.40;;
71610;SDS011;59459;51.172;6.682;2023-04-15T03:58:41;17.07;;;8.70;;
71610;SDS011;59459;51.172;6.682;2023-04-15T04:01:06;16.73;;;7.80;;
71610;SDS011;59459;51.172;6.682;2023-04-15T04:03:32;18.77;;;8.77;;
71610;SDS011;59459;51.172;6.682;2023-04-15T04:05:57;19.57;;;8.80;;
71610;SDS011;59459;51.172;6.682;2023-04-15T04:08:22;17.73;;;8.90;;
71610;SDS011;59459;51.172;6.682;2023-04-15T04:10:47;18.77;;;9.87;;
71610;SDS011;59459;51.172;6.682;2023-04-15T04:13:13;16.33;;;8.33;;
71610;SDS011;59459;51.172;6.682;2023-04-15T04:15:38;15.00;;;8.63;;
71610;SDS011;59459;51.172;6.682;2023-04-15T04:18:03;17.47;;;9.30;;
71610;SDS011;59459;51.172;6.682;2023-04-15T04:20:28;16.97;;;8.83;;
71610;SDS011;59459;51.172;6.682;2023-04-15T04:22:56;16.88;;;8.18;;
71610;SDS011;59459;51.172;6.682;2023-04-15T04:25:21;17.30;;;8.30;;
71610;SDS011;59459;51.172;6.682;2023-04-15T04:27:46;15.57;;;8.87;;
71610;SDS011;59459;51.172;6.682;2023-04-15T04:30:11;18.73;;;9.00;;
71610;SDS011;59459;51.172;6.682;2023-04-15T04:32:37;18.33;;;9.27;;
71610;SDS011;59459;51.172;6.682;2023-04-15T04:35:02;17.03;;;8.30;;
71610;SDS011;59459;51.172;6.682;2023-04-15T04:37:28;17.95;;;9.15;;
71610;SDS011;59459;51.172;6.682;2023-04-15T04:39:53;18.07;;;8.27;;
71610;SDS011;59459;51.172;6.682;2023-04-15T04:42:18;17.73;;;8.23;;
71610;SDS011;59459;51.172;6.682;2023-04-15T04:44:43;20.67;;;9.27;;
71610;SDS011;59459;51.172;6.682;2023-04-15T04:47:08;20.10;;;8.10;;
71610;SDS011;59459;51.172;6.682;2023-04-15T04:49:33;20.43;;;9.17;;
71610;SDS011;59459;51.172;6.682;2023-04-15T04:51:59;18.13;;;8.77;;
71610;SDS011;59459;51.172;6.682;2023-04-15T04:54:24;17.73;;;8.30;;
71610;SDS011;59459;51.172;6.682;2023-04-15T04:56:50;20.87;;;8.83;;
71610;SDS011;59459;51.172;6.682;2023-04-15T04:59:15;15.20;;;8.70;;
71610;SDS011;59459;51.172;6.682;2023-04-15T05:01:40;18.30;;;9.32;;
71610;SDS011;59459;51.172;6.682;2023-04-15T05:04:06;18.07;;;8.90;;
71610;SDS011;59459;51.172;6.682;2023-04-15T05:06:31;20.30;;;9.60;;
71610;SDS011;59459;51.172;6.682;2023-04-15T05:08:57;18.47;;;9.10;;
71610;SDS011;59459;51.172;6.682;2023-04-15T05:11:22;25.63;;;10.97;;
71610;SDS011;59459;51.172;6.682;2023-04-15T05:13:47;20.30;;;9.20;;
71610;SDS011;59459;51.172;6.682;2023-04-15T05:16:12;19.50;;;8.87;;
71610;SDS011;59459;51.172;6.682;2023-04-15T05:18:38;21.10;;;10.15;;
71610;SDS011;59459;51.172;6.682;2023-04-15T05:21:03;16.77;;;8.50;;
71610;SDS011;59459;51.172;6.682;2023-04-15T05:23:28;20.10;;;9.07;;
71610;SDS011;59459;51.172;6.682;2023-04-15T05:25:54;21.13;;;8.90;;
71610;SDS011;59459;51.172;6.682;2023-04-15T05:28:19;19.70;;;8.97;;
71610;SDS011;59459;51.172;6.682;2023-04-15T05:30:45;19.35;;;10.07;;
71610;SDS011;59459;51.172;6.682;2023-04-15T05:33:10;21.47;;;9.77;;
71610;SDS011;59459;51.172;6.682;2023-04-15T05:35:35;19.20;;;10.13;;
71610;SDS011;59459;51.172;6.682;2023-04-15T05:38:00;20.17;;;10.30;;
71610;SDS011;59459;51.172;6.682;2023-04-15T05:40:26;18.87;;;9.53;;
71610;SDS011;59459;51.172;6.682;2023-04-15T05:42:52;22.00;;;10.83;;
71610;SDS011;59459;51.172;6.682;2023-04-15T05:45:17;21.87;;;11.17;;
71610;SDS011;59459;51.172;6.682;2023-04-15T05:47:42;20.00;;;11.18;;
71610;SDS011;59459;51.172;6.682;2023-04-15T05:50:08;26.07;;;12.17;;
71610;SDS011;59459;51.172;6.682;2023-04-15T05:52:33;24.20;;;11.17;;
71610;SDS011;59459;51.172;6.682;2023-04-15T05:54:58;25.53;;;11.90;;
71610;SDS011;59459;51.172;6.682;2023-04-15T05:57:24;24.75;;;11.77;;
71610;SDS011;59459;51.172;6.682;2023-04-15T05:59:49;21.73;;;10.27;;
71610;SDS011;59459;51.172;6.682;2023-04-15T06:02:16;19.27;;;10.35;;
71610;SDS011;59459;51.172;6.682;2023-04-15T06:04:42;20.27;;;10.70;;
71610;SDS011;59459;51.172;6.682;2023-04-15T06:07:07;20.60;;;10.20;;
71610;SDS011;59459;51.172;6.682;2023-04-15T06:09:33;24.20;;;11.50;;
71610;SDS011;59459;51.172;6.682;2023-04-15T06:11:58;23.08;;;11.18;;
71610;SDS011;59459;51.172;6.682;2023-04-15T06:14:23;27.07;;;12.67;;
71610;SDS011;59459;51.172;6.682;2023-04-15T06:16:49;27.57;;;12.00;;
71610;SDS011;59459;51.172;6.682;2023-04-15T06:19:14;21.93;;;12.03;;
71610;SDS011;59459;51.172;6.682;2023-04-15T06:21:39;23.73;;;12.03;;
71610;SDS011;59459;51.172;6.682;2023-04-15T06:24:05;24.88;;;12.20;;
71610;SDS011;59459;51.172;6.682;2023-04-15T06:26:31;23.97;;;13.27;;
71610;SDS011;59459;51.172;6.682;2023-04-15T06:28:56;25.53;;;13.07;;
71610;SDS011;59459;51.172;6.682;2023-04-15T06:31:21;29.50;;;15.83;;
71610;SDS011;59459;51.172;6.682;2023-04-15T06:33:47;26.27;;;15.20;;
71610;SDS011;59459;51.172;6.682;2023-04-15T06:36:12;32.87;;;17.10;;
71610;SDS011;59459;51.172;6.682;2023-04-15T06:38:37;33.13;;;17.90;;
71610;SDS011;59459;51.172;6.682;2023-04-15T06:41:03;29.20;;;14.10;;
71610;SDS011;59459;51.172;6.682;2023-04-15T06:43:28;26.20;;;12.97;;
71610;SDS011;59459;51.172;6.682;2023-04-15T06:45:54;23.53;;;12.27;;
71610;SDS011;59459;51.172;6.682;2023-04-15T06:48:19;23.03;;;10.70;;
71610;SDS011;59459;51.172;6.682;2023-04-15T06:50:44;23.73;;;10.90;;
71610;SDS011;59459;51.172;6.682;2023-04-15T06:53:09;20.50;;;10.80;;
71610;SDS011;59459;51.172;6.682;2023-04-15T06:55:34;23.17;;;11.73;;
71610;SDS011;59459;51.172;6.682;2023-04-15T06:58:00;24.97;;;11.17;;
71610;SDS011;59459;51.172;6.682;2023-04-15T07:00:25;23.13;;;11.13;;
71610;SDS011;59459;51.172;6.682;2023-04-15T07:02:52;23.65;;;11.20;;
71610;SDS011;59459;51.172;6.682;2023-04-15T07:05:19;22.63;;;10.17;;
71610;SDS011;59459;51.172;6.682;2023-04-15T07:07:44;18.20;;;10.00;;
71610;SDS011;59459;51.172;6.682;2023-04-15T07:10:10;22.30;;;10.43;;
71610;SDS011;59459;51.172;6.682;2023-04-15T07:12:35;19.13;;;9.93;;
71610;SDS011;59459;51.172;6.682;2023-04-15T07:15:01;18.30;;;9.57;;
71610;SDS011;59459;51.172;6.682;2023-04-15T07:17:26;22.07;;;10.03;;
71610;SDS011;59459;51.172;6.682;2023-04-15T07:19:51;19.63;;;8.30;;
71610;SDS011;59459;51.172;6.682;2023-04-15T07:22:17;16.50;;;9.00;;
71610;SDS011;59459;51.172;6.682;2023-04-15T07:24:42;14.60;;;7.47;;
71610;SDS011;59459;51.172;6.682;2023-04-15T07:27:07;15.77;;;8.43;;
71610;SDS011;59459;51.172;6.682;2023-04-15T07:29:33;18.43;;;8.30;;
71610;SDS011;59459;51.172;6.682;2023-04-15T07:31:58;16.23;;;8.00;;
71610;SDS011;59459;51.172;6.682;2023-04-15T07:34:23;15.07;;;8.23;;
71610;SDS011;59459;51.172;6.682;2023-04-15T07:36:49;15.65;;;6.97;;
71610;SDS011;59459;51.172;6.682;2023-04-15T07:39:17;17.63;;;7.53;;
71610;SDS011;59459;51.172;6.682;2023-04-15T07:41:42;14.77;;;7.07;;
71610;SDS011;59459;51.172;6.682;2023-04-15T07:44:07;13.37;;;5.73;;
71610;SDS011;59459;51.172;6.682;2023-04-15T07:46:33;11.00;;;4.90;;
71610;SDS011;59459;51.172;6.682;2023-04-15T07:48:58;12.87;;;6.00;;
71610;SDS011;59459;51.172;6.682;2023-04-15T07:51:23;13.87;;;6.50;;
71610;SDS011;59459;51.172;6.682;2023-04-15T07:53:49;13.43;;;5.90;;
71610;SDS011;59459;51.172;6.682;2023-04-15T07:56:14;11.70;;;5.28;;
71610;SDS011;59459;51.172;6.682;2023-04-15T07:58:39;10.40;;;4.90;;
71610;SDS011;59459;51.172;6.682;2023-04-15T08:01:05;10.73;;;4.90;;
71610;SDS011;59459;51.172;6.682;2023-04-15T08:03:30;11.32;;;5.00;;
71610;SDS011;59459;51.172;6.682;2023-04-15T08:05:56;13.20;;;4.83;;
71610;SDS011;59459;51.172;6.682;2023-04-15T08:08:22;11.30;;;4.95;;
71610;SDS011;59459;51.172;6.682;2023-04-15T08:10:47;9.00;;;3.80;;
71610;SDS011;59459;51.172;6.682;2023-04-15T08:13:12;9.10;;;3.97;;
71610;SDS011;59459;51.172;6.682;2023-04-15T08:15:38;10.13;;;3.53;;
71610;SDS011;59459;51.172;6.682;2023-04-15T08:18:03;9.73;;;4.17;;
71610;SDS011;59459;51.172;6.682;2023-04-15T08:20:32;9.15;;;4.05;;
71610;SDS011;59459;51.172;6.682;2023-04-15T08:22:57;9.73;;;4.57;;
71610;SDS011;59459;51.172;6.682;2023-04-15T08:25:24;8.80;;;3.83;;
71610;SDS011;59459;51.172;6.682;2023-04-15T08:27:49;9.03;;;3.70;;
71610;SDS011;59459;51.172;6.682;2023-04-15T08:30:15;10.00;;;4.05;;
71610;SDS011;59459;51.172;6.682;2023-04-15T08:32:42;8.65;;;3.67;;
71610;SDS011;59459;51.172;6.682;2023-04-15T08:35:12;12.90;;;4.33;;
71610;SDS011;59459;51.172;6.682;2023-04-15T08:37:38;8.93;;;4.13;;
71610;SDS011;59459;51.172;6.682;2023-04-15T08:40:03;9.60;;;3.83;;
71610;SDS011;59459;51.172;6.682;2023-04-15T08:42:30;7.47;;;3.47;;
71610;SDS011;59459;51.172;6.682;2023-04-15T08:44:57;8.40;;;3.10;;
71610;SDS011;59459;51.172;6.682;2023-04-15T08:47:27;7.25;;;2.72;;
71610;SDS011;59459;51.172;6.682;2023-04-15T08:49:54;7.17;;;2.80;;
71610;SDS011;59459;51.172;6.682;2023-04-15T08:52:23;7.65;;;2.58;;
71610;SDS011;59459;51.172;6.682;2023-04-15T08:54:49;7.90;;;3.58;;
71610;SDS011;59459;51.172;6.682;2023-04-15T08:57:15;7.43;;;2.97;;
71610;SDS011;59459;51.172;6.682;2023-04-15T08:59:40;9.97;;;3.50;;
71610;SDS011;59459;51.172;6.682;2023-04-15T09:05:09;8.53;;;3.70;;
71610;SDS011;59459;51.172;6.682;2023-04-15T09:07:35;9.50;;;3.90;;
71610;SDS011;59459;51.172;6.682;2023-04-15T09:10:01;7.57;;;3.65;;
71610;SDS011;59459;51.172;6.682;2023-04-15T09:12:27;10.27;;;4.10;;
71610;SDS011;59459;51.172;6.682;2023-04-15T09:14:52;9.40;;;3.67;;
71610;SDS011;59459;51.172;6.682;2023-04-15T09:17:18;9.13;;;4.03;;
71610;SDS011;59459;51.172;6.682;2023-04-15T09:19:44;9.10;;;4.20;;
71610;SDS011;59459;51.172;6.682;2023-04-15T09:22:10;8.23;;;3.57;;
71610;SDS011;59459;51.172;6.682;2023-04-15T09:24:36;7.43;;;3.33;;
71610;SDS011;59459;51.172;6.682;2023-04-15T09:27:02;7.18;;;3.17;;
71610;SDS011;59459;51.172;6.682;2023-04-15T09:29:27;6.77;;;2.67;;
71610;SDS011;59459;51.172;6.682;2023-04-15T09:31:52;7.83;;;2.60;;
71610;SDS011;59459;51.172;6.682;2023-04-15T09:34:18;6.07;;;2.07;;
71610;SDS011;59459;51.172;6.682;2023-04-15T09:39:11;4.60;;;1.70;;
71610;SDS011;59459;51.172;6.682;2023-04-15T09:41:37;5.70;;;2.38;;
71610;SDS011;59459;51.172;6.682;2023-04-15T09:44:03;6.90;;;2.60;;
71610;SDS011;59459;51.172;6.682;2023-04-15T09:46:40;5.73;;;2.50;;
71610;SDS011;59459;51.172;6.682;2023-04-15T09:49:07;6.97;;;2.40;;
71610;SDS011;59459;51.172;6.682;2023-04-15T09:51:35;10.10;;;3.35;;
71610;SDS011;59459;51.172;6.682;2023-04-15T09:54:01;6.40;;;2.38;;
71610;SDS011;59459;51.172;6.682;2023-04-15T09:56:37;6.57;;;2.93;;
71610;SDS011;59459;51.172;6.682;2023-04-15T09:59:05;8.88;;;3.45;;
71610;SDS011;59459;51.172;6.682;2023-04-15T10:01:30;7.77;;;3.23;;
71610;SDS011;59459;51.172;6.682;2023-04-15T10:03:56;8.37;;;3.30;;
71610;SDS011;59459;51.172;6.682;2023-04-15T10:06:22;8.38;;;3.70;;
71610;SDS011;59459;51.172;6.682;2023-04-15T10:08:47;7.83;;;2.80;;
71610;SDS011;59459;51.172;6.682;2023-04-15T10:11:13;6.43;;;2.88;;
71610;SDS011;59459;51.172;6.682;2023-04-15T10:13:38;5.97;;;2.50;;
71610;SDS011;59459;51.172;6.682;2023-04-15T10:16:10;6.70;;;2.97;;
71610;SDS011;59459;51.172;6.682;2023-04-15T10:18:42;8.55;;;3.40;;
71610;SDS011;59459;51.172;6.682;2023-04-15T10:21:13;7.65;;;3.47;;
71610;SDS011;59459;51.172;6.682;2023-04-15T10:23:45;7.33;;;3.20;;
71610;SDS011;59459;51.172;6.682;2023-04-15T10:26:11;10.07;;;3.22;;
71610;SDS011;59459;51.172;6.682;2023-04-15T10:28:38;8.25;;;3.53;;
71610;SDS011;59459;51.172;6.682;2023-04-15T10:31:04;8.53;;;3.87;;
71610;SDS011;59459;51.172;6.682;2023-04-15T10:33:30;9.65;;;4.30;;
71610;SDS011;59459;51.172;6.682;2023-04-15T10:35:55;9.07;;;3.53;;
71610;SDS011;59459;51.172;6.682;2023-04-15T10:41:04;7.80;;;3.35;;
71610;SDS011;59459;51.172;6.682;2023-04-15T10:43:35;7.05;;;2.95;;
71610;SDS011;59459;51.172;6.682;2023-04-15T10:46:03;6.23;;;3.00;;
71610;SDS011;59459;51.172;6.682;2023-04-15T10:48:31;5.45;;;2.45;;
71610;SDS011;59459;51.172;6.682;2023-04-15T10:50:57;7.63;;;3.60;;
71610;SDS011;59459;51.172;6.682;2023-04-15T10:53:28;6.93;;;3.07;;
71610;SDS011;59459;51.172;6.682;2023-04-15T10:55:54;5.93;;;2.60;;
71610;SDS011;59459;51.172;6.682;2023-04-15T11:13:23;11.15;;;6.35;;
71610;SDS011;59459;51.172;6.682;2023-04-15T11:22:10;11.30;;;6.57;;
71610;SDS011;59459;51.172;6.682;2023-04-15T11:24:36;14.80;;;7.25;;
71610;SDS011;59459;51.172;6.682;2023-04-15T11:27:19;12.77;;;7.53;;
71610;SDS011;59459;51.172;6.682;2023-04-15T11:29:44;12.88;;;7.63;;
71610;SDS011;59459;51.172;6.682;2023-04-15T11:32:09;14.00;;;8.67;;
71610;SDS011;59459;51.172;6.682;2023-04-15T11:34:34;15.57;;;9.40;;
71610;SDS011;59459;51.172;6.682;2023-04-15T11:37:02;15.07;;;9.37;;
71610;SDS011;59459;51.172;6.682;2023-04-15T11:39:28;15.55;;;9.20;;
71610;SDS011;59459;51.172;6.682;2023-04-15T11:41:53;16.13;;;9.03;;
71610;SDS011;59459;51.172;6.682;2023-04-15T11:44:18;18.97;;;11.17;;
71610;SDS011;59459;51.172;6.682;2023-04-15T11:46:44;17.63;;;10.30;;
71610;SDS011;59459;51.172;6.682;2023-04-15T11:49:09;16.52;;;9.43;;
71610;SDS011;59459;51.172;6.682;2023-04-15T11:51:35;19.30;;;8.87;;
71610;SDS011;59459;51.172;6.682;2023-04-15T11:54:00;16.50;;;7.83;;
71610;SDS011;59459;51.172;6.682;2023-04-15T11:56:29;25.75;;;7.18;;
71610;SDS011;59459;51.172;6.682;2023-04-15T11:58:55;31.27;;;6.77;;
71610;SDS011;59459;51.172;6.682;2023-04-15T12:01:30;11.10;;;5.20;;
71610;SDS011;59459;51.172;6.682;2023-04-15T12:03:55;12.13;;;4.97;;
71610;SDS011;59459;51.172;6.682;2023-04-15T12:06:21;11.43;;;4.30;;
71610;SDS011;59459;51.172;6.682;2023-04-15T12:09:02;7.75;;;3.40;;
71610;SDS011;59459;51.172;6.682;2023-04-15T12:11:29;9.90;;;3.45;;
71610;SDS011;59459;51.172;6.682;2023-04-15T12:14:01;16.88;;;4.28;;
71610;SDS011;59459;51.172;6.682;2023-04-15T12:16:27;16.65;;;4.25;;
71610;SDS011;59459;51.172;6.682;2023-04-15T12:21:59;23.55;;;4.55;;
71610;SDS011;59459;51.172;6.682;2023-04-15T12:24:25;12.40;;;3.63;;
71610;SDS011;59459;51.172;6.682;2023-04-15T12:26:54;6.78;;;2.90;;
71610;SDS011;59459;51.172;6.682;2023-04-15T12:29:24;13.57;;;3.00;;
71610;SDS011;59459;51.172;6.682;2023-04-15T12:31:54;8.20;;;3.45;;
71610;SDS011;59459;51.172;6.682;2023-04-15T12:34:26;59.35;;;10.77;;
71610;SDS011;59459;51.172;6.682;2023-04-15T12:36:52;9.32;;;4.20;;
71610;SDS011;59459;51.172;6.682;2023-04-15T12:39:20;9.07;;;3.87;;
71610;SDS011;59459;51.172;6.682;2023-04-15T12:41:46;10.75;;;4.60;;
71610;SDS011;59459;51.172;6.682;2023-04-15T12:44:23;9.53;;;4.10;;
71610;SDS011;59459;51.172;6.682;2023-04-15T12:46:57;8.32;;;3.45;;
71610;SDS011;59459;51.172;6.682;2023-04-15T12:49:23;8.15;;;3.78;;
71610;SDS011;59459;51.172;6.682;2023-04-15T12:51:50;9.63;;;3.67;;
71610;SDS011;59459;51.172;6.682;2023-04-15T12:54:16;21.42;;;4.82;;
71610;SDS011;59459;51.172;6.682;2023-04-15T12:56:41;7.93;;;3.10;;
71610;SDS011;59459;51.172;6.682;2023-04-15T12:59:07;8.02;;;3.30;;
71610;SDS011;59459;51.172;6.682;2023-04-15T13:01:32;6.70;;;3.40;;
71610;SDS011;59459;51.172;6.682;2023-04-15T13:03:57;8.40;;;3.30;;
71610;SDS011;59459;51.172;6.682;2023-04-15T13:06:23;7.43;;;3.30;;
71610;SDS011;59459;51.172;6.682;2023-04-15T13:08:48;8.65;;;3.10;;
71610;SDS011;59459;51.172;6.682;2023-04-15T13:11:14;7.37;;;3.20;;
71610;SDS011;59459;51.172;6.682;2023-04-15T13:13:39;7.97;;;3.60;;
71610;SDS011;59459;51.172;6.682;2023-04-15T13:16:04;16.70;;;4.00;;
71610;SDS011;59459;51.172;6.682;2023-04-15T13:18:30;9.03;;;3.60;;
71610;SDS011;59459;51.172;6.682;2023-04-15T13:20:55;9.70;;;3.00;;
71610;SDS011;59459;51.172;6.682;2023-04-15T13:23:20;9.53;;;3.13;;
71610;SDS011;59459;51.172;6.682;2023-04-15T13:25:46;8.40;;;3.22;;
71610;SDS011;59459;51.172;6.682;2023-04-15T13:28:11;7.40;;;3.00;;
71610;SDS011;59459;51.172;6.682;2023-04-15T13:30:36;6.93;;;2.90;;
71610;SDS011;59459;51.172;6.682;2023-04-15T13:33:02;6.33;;;2.73;;
71610;SDS011;59459;51.172;6.682;2023-04-15T13:35:27;6.90;;;2.97;;
71610;SDS011;59459;51.172;6.682;2023-04-15T13:37:52;11.93;;;2.87;;
71610;SDS011;59459;51.172;6.682;2023-04-15T13:40:18;6.33;;;2.80;;
71610;SDS011;59459;51.172;6.682;2023-04-15T13:42:44;9.02;;;3.00;;
71610;SDS011;59459;51.172;6.682;2023-04-15T13:45:10;9.17;;;3.40;;
71610;SDS011;59459;51.172;6.682;2023-04-15T13:47:36;9.35;;;3.65;;
71610;SDS011;59459;51.172;6.682;2023-04-15T13:50:01;19.73;;;4.40;;
71610;SDS011;59459;51.172;6.682;2023-04-15T13:52:26;8.80;;;3.20;;
71610;SDS011;59459;51.172;6.682;2023-04-15T13:54:54;12.23;;;3.65;;
71610;SDS011;59459;51.172;6.682;2023-04-15T13:57:19;8.97;;;3.27;;
71610;SDS011;59459;51.172;6.682;2023-04-15T13:59:45;8.77;;;2.77;;
71610;SDS011;59459;51.172;6.682;2023-04-15T14:02:10;6.73;;;3.20;;
71610;SDS011;59459;51.172;6.682;2023-04-15T14:04:35;8.70;;;2.67;;
71610;SDS011;59459;51.172;6.682;2023-04-15T14:07:00;6.47;;;2.47;;
71610;SDS011;59459;51.172;6.682;2023-04-15T14:09:26;5.10;;;2.20;;
71610;SDS011;59459;51.172;6.682;2023-04-15T14:11:51;11.00;;;2.60;;
71610;SDS011;59459;51.172;6.682;2023-04-15T14:14:16;6.73;;;2.73;;
71610;SDS011;59459;51.172;6.682;2023-04-15T14:16:41;7.70;;;2.25;;
71610;SDS011;59459;51.172;6.682;2023-04-15T14:19:07;5.50;;;2.20;;
71610;SDS011;59459;51.172;6.682;2023-04-15T14:21:32;8.13;;;2.37;;
71610;SDS011;59459;51.172;6.682;2023-04-15T14:23:57;6.53;;;2.27;;
71610;SDS011;59459;51.172;6.682;2023-04-15T14:26:23;5.27;;;2.20;;
71610;SDS011;59459;51.172;6.682;2023-04-15T14:28:48;7.73;;;2.50;;
71610;SDS011;59459;51.172;6.682;2023-04-15T14:31:13;5.57;;;2.33;;
71610;SDS011;59459;51.172;6.682;2023-04-15T14:33:39;7.80;;;2.40;;
71610;SDS011;59459;51.172;6.682;2023-04-15T14:36:04;6.10;;;1.98;;
71610;SDS011;59459;51.172;6.682;2023-04-15T14:38:30;8.87;;;3.23;;
71610;SDS011;59459;51.172;6.682;2023-04-15T14:40:55;6.80;;;2.10;;
71610;SDS011;59459;51.172;6.682;2023-04-15T14:43:20;7.47;;;2.50;;
71610;SDS011;59459;51.172;6.682;2023-04-15T14:45:46;8.47;;;3.00;;
71610;SDS011;59459;51.172;6.682;2023-04-15T14:48:11;8.75;;;2.70;;
71610;SDS011;59459;51.172;6.682;2023-04-15T14:50:37;6.90;;;2.90;;
71610;SDS011;59459;51.172;6.682;2023-04-15T14:53:02;7.63;;;3.50;;
71610;SDS011;59459;51.172;6.682;2023-04-15T14:55:27;9.90;;;3.20;;
71610;SDS011;59459;51.172;6.682;2023-04-15T14:57:52;6.53;;;2.80;;
71610;SDS011;59459;51.172;6.682;2023-04-15T15:00:18;9.33;;;3.40;;